sensor_id;sensor_type;location;lat;lon;timestamp;P1;durP1;ratioP1;P2;durP2;ratioP2
8556;SDS011;4316;53.840;10.762;2023-03-01T00:01:31;4.80;;;4.30;;
8556;SDS011;4316;53.840;10.762;2023-03-01T00:03:57;4.70;;;3.70;;
8556;SDS011;4316;53.840;10.762;2023-03-01T00:06:24;4.23;;;3.83;;
8556;SDS011;4316;53.840;10.762;2023-03-01T00:08:51;5.77;;;4.50;;
8556;SDS011;4316;53.840;10.762;2023-03-01T00:11:18;5.60;;;3.73;;
8556;SDS011;4316;53.840;10.762;2023-03-01T00:13:50;5.27;;;3.70;;
8556;SDS011;4316;53.840;10.762;2023-03-01T00:16:18;5.20;;;4.00;;
8556;SDS011;4316;53.840;10.762;2023-03-01T00:18:46;7.23;;;4.13;;
8556;SDS011;4316;53.840;10.762;2023-03-01T00:21:12;3.83;;;3.47;;
8556;SDS011;4316;53.840;10.762;2023-03-01T00:23:38;3.83;;;3.43;;
8556;SDS011;4316;53.840;10.762;2023-03-01T00:26:08;3.77;;;3.47;;
8556;SDS011;4316;53.840;10.762;2023-03-01T00:28:38;5.30;;;4.00;;
8556;SDS011;4316;53.840;10.762;2023-03-01T00:31:04;5.83;;;3.60;;
8556;SDS011;4316;53.840;10.762;2023-03-01T00:33:40;5.03;;;4.07;;
8556;SDS011;4316;53.840;10.762;2023-03-01T00:36:07;4.67;;;4.07;;
8556;SDS011;4316;53.840;10.762;2023-03-01T00:38:35;4.90;;;4.40;;
8556;SDS011;4316;53.840;10.762;2023-03-01T00:41:02;4.17;;;3.70;;
8556;SDS011;4316;53.840;10.762;2023-03-01T00:43:36;8.87;;;3.67;;
8556;SDS011;4316;53.840;10.762;2023-03-01T00:46:03;5.23;;;3.93;;
8556;SDS011;4316;53.840;10.762;2023-03-01T00:48:37;6.17;;;3.80;;
8556;SDS011;4316;53.840;10.762;2023-03-01T00:51:07;4.37;;;3.70;;
8556;SDS011;4316;53.840;10.762;2023-03-01T00:53:36;4.73;;;4.10;;
8556;SDS011;4316;53.840;10.762;2023-03-01T00:56:03;5.30;;;4.00;;
8556;SDS011;4316;53.840;10.762;2023-03-01T00:58:30;4.03;;;3.53;;
8556;SDS011;4316;53.840;10.762;2023-03-01T01:00:55;4.37;;;3.90;;
8556;SDS011;4316;53.840;10.762;2023-03-01T01:03:21;7.20;;;4.23;;
8556;SDS011;4316;53.840;10.762;2023-03-01T01:05:50;6.73;;;4.00;;
8556;SDS011;4316;53.840;10.762;2023-03-01T01:08:19;4.50;;;3.77;;
8556;SDS011;4316;53.840;10.762;2023-03-01T01:10:46;5.97;;;4.00;;
8556;SDS011;4316;53.840;10.762;2023-03-01T01:13:11;4.30;;;3.90;;
8556;SDS011;4316;53.840;10.762;2023-03-01T01:15:38;4.97;;;3.90;;
8556;SDS011;4316;53.840;10.762;2023-03-01T01:18:04;4.93;;;3.67;;
8556;SDS011;4316;53.840;10.762;2023-03-01T01:20:30;5.63;;;3.87;;
8556;SDS011;4316;53.840;10.762;2023-03-01T01:22:56;5.37;;;4.00;;
8556;SDS011;4316;53.840;10.762;2023-03-01T01:25:22;5.23;;;3.70;;
8556;SDS011;4316;53.840;10.762;2023-03-01T01:27:50;6.23;;;3.47;;
8556;SDS011;4316;53.840;10.762;2023-03-01T01:30:16;5.67;;;5.07;;
8556;SDS011;4316;53.840;10.762;2023-03-01T01:32:42;4.63;;;3.73;;
8556;SDS011;4316;53.840;10.762;2023-03-01T01:35:08;7.37;;;4.37;;
8556;SDS011;4316;53.840;10.762;2023-03-01T01:37:34;6.00;;;4.03;;
8556;SDS011;4316;53.840;10.762;2023-03-01T01:40:00;9.07;;;4.17;;
8556;SDS011;4316;53.840;10.762;2023-03-01T01:42:29;4.57;;;4.07;;
8556;SDS011;4316;53.840;10.762;2023-03-01T01:47:59;5.93;;;3.90;;
8556;SDS011;4316;53.840;10.762;2023-03-01T01:50:29;7.40;;;4.97;;
8556;SDS011;4316;53.840;10.762;2023-03-01T01:53:03;6.57;;;4.10;;
8556;SDS011;4316;53.840;10.762;2023-03-01T01:55:40;4.60;;;3.87;;
8556;SDS011;4316;53.840;10.762;2023-03-01T01:58:11;5.37;;;4.30;;
8556;SDS011;4316;53.840;10.762;2023-03-01T02:00:40;4.87;;;3.67;;
8556;SDS011;4316;53.840;10.762;2023-03-01T02:03:08;10.13;;;3.97;;
8556;SDS011;4316;53.840;10.762;2023-03-01T02:05:42;5.83;;;4.43;;
8556;SDS011;4316;53.840;10.762;2023-03-01T02:08:13;4.20;;;3.80;;
8556;SDS011;4316;53.840;10.762;2023-03-01T02:10:40;5.10;;;4.40;;
8556;SDS011;4316;53.840;10.762;2023-03-01T02:13:08;4.23;;;3.83;;
8556;SDS011;4316;53.840;10.762;2023-03-01T02:15:35;4.40;;;4.00;;
8556;SDS011;4316;53.840;10.762;2023-03-01T02:18:02;5.13;;;3.90;;
8556;SDS011;4316;53.840;10.762;2023-03-01T02:23:04;6.53;;;4.07;;
8556;SDS011;4316;53.840;10.762;2023-03-01T02:25:36;5.87;;;4.70;;
8556;SDS011;4316;53.840;10.762;2023-03-01T02:30:48;5.03;;;4.40;;
8556;SDS011;4316;53.840;10.762;2023-03-01T02:33:33;5.50;;;3.83;;
8556;SDS011;4316;53.840;10.762;2023-03-01T02:36:09;5.23;;;3.90;;
8556;SDS011;4316;53.840;10.762;2023-03-01T02:38:42;3.97;;;3.63;;
8556;SDS011;4316;53.840;10.762;2023-03-01T02:41:08;4.40;;;3.93;;
8556;SDS011;4316;53.840;10.762;2023-03-01T02:43:35;7.77;;;3.70;;
8556;SDS011;4316;53.840;10.762;2023-03-01T02:46:07;5.43;;;4.00;;
8556;SDS011;4316;53.840;10.762;2023-03-01T02:48:42;4.77;;;4.03;;
8556;SDS011;4316;53.840;10.762;2023-03-01T02:53:55;4.03;;;3.47;;
8556;SDS011;4316;53.840;10.762;2023-03-01T02:56:39;4.57;;;4.13;;
8556;SDS011;4316;53.840;10.762;2023-03-01T02:59:06;6.37;;;4.53;;
8556;SDS011;4316;53.840;10.762;2023-03-01T03:01:34;6.37;;;4.17;;
8556;SDS011;4316;53.840;10.762;2023-03-01T03:04:06;5.30;;;3.63;;
8556;SDS011;4316;53.840;10.762;2023-03-01T03:06:35;4.33;;;3.90;;
8556;SDS011;4316;53.840;10.762;2023-03-01T03:09:02;6.20;;;4.80;;
8556;SDS011;4316;53.840;10.762;2023-03-01T03:11:29;4.40;;;3.27;;
8556;SDS011;4316;53.840;10.762;2023-03-01T03:13:56;6.07;;;4.40;;
8556;SDS011;4316;53.840;10.762;2023-03-01T03:16:23;4.80;;;3.97;;
8556;SDS011;4316;53.840;10.762;2023-03-01T03:18:49;4.43;;;3.67;;
8556;SDS011;4316;53.840;10.762;2023-03-01T03:21:16;4.73;;;4.00;;
8556;SDS011;4316;53.840;10.762;2023-03-01T03:23:42;4.37;;;3.97;;
8556;SDS011;4316;53.840;10.762;2023-03-01T03:26:08;4.50;;;3.80;;
8556;SDS011;4316;53.840;10.762;2023-03-01T03:28:38;5.23;;;4.10;;
8556;SDS011;4316;53.840;10.762;2023-03-01T03:31:05;5.00;;;3.83;;
8556;SDS011;4316;53.840;10.762;2023-03-01T03:33:35;6.17;;;3.57;;
8556;SDS011;4316;53.840;10.762;2023-03-01T03:36:00;4.27;;;3.90;;
8556;SDS011;4316;53.840;10.762;2023-03-01T03:38:26;5.10;;;4.07;;
8556;SDS011;4316;53.840;10.762;2023-03-01T03:40:58;5.27;;;4.13;;
8556;SDS011;4316;53.840;10.762;2023-03-01T03:43:27;4.73;;;3.80;;
8556;SDS011;4316;53.840;10.762;2023-03-01T03:45:53;5.30;;;3.80;;
8556;SDS011;4316;53.840;10.762;2023-03-01T03:48:20;6.43;;;4.23;;
8556;SDS011;4316;53.840;10.762;2023-03-01T03:50:50;6.53;;;4.10;;
8556;SDS011;4316;53.840;10.762;2023-03-01T03:53:20;5.37;;;3.70;;
8556;SDS011;4316;53.840;10.762;2023-03-01T03:55:47;3.90;;;3.40;;
8556;SDS011;4316;53.840;10.762;2023-03-01T03:58:16;6.20;;;3.90;;
8556;SDS011;4316;53.840;10.762;2023-03-01T04:00:45;5.73;;;4.17;;
8556;SDS011;4316;53.840;10.762;2023-03-01T04:03:13;6.87;;;4.07;;
8556;SDS011;4316;53.840;10.762;2023-03-01T04:05:40;4.60;;;4.20;;
8556;SDS011;4316;53.840;10.762;2023-03-01T04:08:07;4.90;;;4.27;;
8556;SDS011;4316;53.840;10.762;2023-03-01T04:10:34;4.13;;;3.83;;
8556;SDS011;4316;53.840;10.762;2023-03-01T04:13:01;7.33;;;4.60;;
8556;SDS011;4316;53.840;10.762;2023-03-01T04:15:28;4.77;;;4.33;;
8556;SDS011;4316;53.840;10.762;2023-03-01T04:17:54;6.00;;;4.30;;
8556;SDS011;4316;53.840;10.762;2023-03-01T04:20:22;4.77;;;4.20;;
8556;SDS011;4316;53.840;10.762;2023-03-01T04:28:19;5.00;;;4.50;;
8556;SDS011;4316;53.840;10.762;2023-03-01T04:30:52;6.50;;;4.57;;
8556;SDS011;4316;53.840;10.762;2023-03-01T04:33:18;5.83;;;4.27;;
8556;SDS011;4316;53.840;10.762;2023-03-01T04:35:45;5.23;;;4.10;;
8556;SDS011;4316;53.840;10.762;2023-03-01T04:38:14;5.50;;;4.60;;
8556;SDS011;4316;53.840;10.762;2023-03-01T04:40:41;6.37;;;4.63;;
8556;SDS011;4316;53.840;10.762;2023-03-01T04:43:09;6.40;;;4.47;;
8556;SDS011;4316;53.840;10.762;2023-03-01T04:45:36;6.17;;;5.43;;
8556;SDS011;4316;53.840;10.762;2023-03-01T04:48:02;5.37;;;4.57;;
8556;SDS011;4316;53.840;10.762;2023-03-01T04:50:29;7.07;;;5.80;;
8556;SDS011;4316;53.840;10.762;2023-03-01T04:52:55;5.57;;;4.87;;
8556;SDS011;4316;53.840;10.762;2023-03-01T04:55:27;6.63;;;5.17;;
8556;SDS011;4316;53.840;10.762;2023-03-01T04:57:54;6.50;;;5.50;;
8556;SDS011;4316;53.840;10.762;2023-03-01T05:00:20;5.93;;;5.07;;
8556;SDS011;4316;53.840;10.762;2023-03-01T05:02:48;7.50;;;5.40;;
8556;SDS011;4316;53.840;10.762;2023-03-01T05:05:39;9.20;;;6.07;;
8556;SDS011;4316;53.840;10.762;2023-03-01T05:08:07;17.47;;;8.80;;
8556;SDS011;4316;53.840;10.762;2023-03-01T05:10:34;12.30;;;8.90;;
8556;SDS011;4316;53.840;10.762;2023-03-01T05:13:01;15.60;;;10.07;;
8556;SDS011;4316;53.840;10.762;2023-03-01T05:15:28;18.83;;;10.37;;
8556;SDS011;4316;53.840;10.762;2023-03-01T05:17:56;22.10;;;11.90;;
8556;SDS011;4316;53.840;10.762;2023-03-01T05:20:24;18.77;;;11.63;;
8556;SDS011;4316;53.840;10.762;2023-03-01T05:22:51;21.90;;;12.83;;
8556;SDS011;4316;53.840;10.762;2023-03-01T05:25:19;35.57;;;14.73;;
8556;SDS011;4316;53.840;10.762;2023-03-01T05:27:46;39.83;;;15.47;;
8556;SDS011;4316;53.840;10.762;2023-03-01T05:30:12;28.70;;;15.10;;
8556;SDS011;4316;53.840;10.762;2023-03-01T05:32:41;52.97;;;16.57;;
8556;SDS011;4316;53.840;10.762;2023-03-01T05:35:20;28.77;;;16.87;;
8556;SDS011;4316;53.840;10.762;2023-03-01T05:37:47;69.03;;;17.33;;
8556;SDS011;4316;53.840;10.762;2023-03-01T05:40:18;24.20;;;16.40;;
8556;SDS011;4316;53.840;10.762;2023-03-01T05:42:46;29.03;;;15.73;;
8556;SDS011;4316;53.840;10.762;2023-03-01T05:45:13;34.30;;;18.43;;
8556;SDS011;4316;53.840;10.762;2023-03-01T05:47:41;35.83;;;18.20;;
8556;SDS011;4316;53.840;10.762;2023-03-01T05:50:12;30.20;;;17.90;;
8556;SDS011;4316;53.840;10.762;2023-03-01T05:52:45;118.50;;;20.33;;
8556;SDS011;4316;53.840;10.762;2023-03-01T05:55:13;32.13;;;17.93;;
8556;SDS011;4316;53.840;10.762;2023-03-01T05:57:40;32.07;;;18.37;;
8556;SDS011;4316;53.840;10.762;2023-03-01T06:00:07;100.57;;;20.13;;
8556;SDS011;4316;53.840;10.762;2023-03-01T06:02:37;63.90;;;18.73;;
8556;SDS011;4316;53.840;10.762;2023-03-01T06:05:04;34.73;;;19.53;;
8556;SDS011;4316;53.840;10.762;2023-03-01T06:07:31;32.20;;;17.77;;
8556;SDS011;4316;53.840;10.762;2023-03-01T06:09:57;59.93;;;19.03;;
8556;SDS011;4316;53.840;10.762;2023-03-01T06:12:22;28.50;;;16.87;;
8556;SDS011;4316;53.840;10.762;2023-03-01T06:14:48;87.93;;;18.00;;
8556;SDS011;4316;53.840;10.762;2023-03-01T06:17:14;29.10;;;17.77;;
8556;SDS011;4316;53.840;10.762;2023-03-01T06:19:40;173.20;;;17.07;;
8556;SDS011;4316;53.840;10.762;2023-03-01T06:22:05;30.43;;;15.77;;
8556;SDS011;4316;53.840;10.762;2023-03-01T06:24:32;106.57;;;18.20;;
8556;SDS011;4316;53.840;10.762;2023-03-01T06:26:58;118.33;;;17.47;;
8556;SDS011;4316;53.840;10.762;2023-03-01T06:29:24;23.10;;;14.87;;
8556;SDS011;4316;53.840;10.762;2023-03-01T06:31:49;68.07;;;15.90;;
8556;SDS011;4316;53.840;10.762;2023-03-01T06:34:15;22.00;;;15.27;;
8556;SDS011;4316;53.840;10.762;2023-03-01T06:36:41;133.03;;;18.13;;
8556;SDS011;4316;53.840;10.762;2023-03-01T06:39:07;37.60;;;15.83;;
8556;SDS011;4316;53.840;10.762;2023-03-01T06:41:33;25.17;;;16.43;;
8556;SDS011;4316;53.840;10.762;2023-03-01T06:43:59;37.33;;;17.30;;
8556;SDS011;4316;53.840;10.762;2023-03-01T06:46:25;21.23;;;14.47;;
8556;SDS011;4316;53.840;10.762;2023-03-01T06:48:50;25.37;;;16.30;;
8556;SDS011;4316;53.840;10.762;2023-03-01T06:51:16;63.47;;;17.70;;
8556;SDS011;4316;53.840;10.762;2023-03-01T06:53:42;31.87;;;17.47;;
8556;SDS011;4316;53.840;10.762;2023-03-01T06:56:08;25.13;;;16.83;;
8556;SDS011;4316;53.840;10.762;2023-03-01T06:58:33;91.30;;;18.40;;
8556;SDS011;4316;53.840;10.762;2023-03-01T07:00:59;24.97;;;15.80;;
8556;SDS011;4316;53.840;10.762;2023-03-01T07:03:25;32.50;;;18.33;;
8556;SDS011;4316;53.840;10.762;2023-03-01T07:05:51;48.33;;;18.23;;
8556;SDS011;4316;53.840;10.762;2023-03-01T07:08:17;33.80;;;17.27;;
8556;SDS011;4316;53.840;10.762;2023-03-01T07:10:44;38.77;;;18.20;;
8556;SDS011;4316;53.840;10.762;2023-03-01T07:13:10;28.97;;;18.63;;
8556;SDS011;4316;53.840;10.762;2023-03-01T07:15:35;45.80;;;18.97;;
8556;SDS011;4316;53.840;10.762;2023-03-01T07:18:01;54.93;;;19.70;;
8556;SDS011;4316;53.840;10.762;2023-03-01T07:20:27;37.20;;;18.03;;
8556;SDS011;4316;53.840;10.762;2023-03-01T07:22:53;42.73;;;18.57;;
8556;SDS011;4316;53.840;10.762;2023-03-01T07:25:20;52.90;;;18.40;;
8556;SDS011;4316;53.840;10.762;2023-03-01T07:27:52;55.93;;;18.23;;
8556;SDS011;4316;53.840;10.762;2023-03-01T07:30:18;96.90;;;19.57;;
8556;SDS011;4316;53.840;10.762;2023-03-01T07:32:45;33.60;;;19.47;;
8556;SDS011;4316;53.840;10.762;2023-03-01T07:35:11;45.90;;;19.00;;
8556;SDS011;4316;53.840;10.762;2023-03-01T07:37:37;38.93;;;20.30;;
8556;SDS011;4316;53.840;10.762;2023-03-01T07:40:03;38.07;;;20.43;;
8556;SDS011;4316;53.840;10.762;2023-03-01T07:42:29;54.47;;;21.07;;
8556;SDS011;4316;53.840;10.762;2023-03-01T07:44:55;64.40;;;22.53;;
8556;SDS011;4316;53.840;10.762;2023-03-01T07:47:20;32.00;;;20.63;;
8556;SDS011;4316;53.840;10.762;2023-03-01T07:49:46;31.20;;;20.27;;
8556;SDS011;4316;53.840;10.762;2023-03-01T07:52:12;51.00;;;21.53;;
8556;SDS011;4316;53.840;10.762;2023-03-01T07:54:38;37.87;;;20.27;;
8556;SDS011;4316;53.840;10.762;2023-03-01T07:57:04;37.40;;;20.67;;
8556;SDS011;4316;53.840;10.762;2023-03-01T07:59:30;34.37;;;20.13;;
8556;SDS011;4316;53.840;10.762;2023-03-01T08:01:56;33.47;;;21.37;;
8556;SDS011;4316;53.840;10.762;2023-03-01T08:04:22;38.23;;;22.20;;
8556;SDS011;4316;53.840;10.762;2023-03-01T08:06:50;72.30;;;22.03;;
8556;SDS011;4316;53.840;10.762;2023-03-01T08:09:16;96.07;;;23.30;;
8556;SDS011;4316;53.840;10.762;2023-03-01T08:11:42;61.50;;;21.17;;
8556;SDS011;4316;53.840;10.762;2023-03-01T08:14:07;110.13;;;23.40;;
8556;SDS011;4316;53.840;10.762;2023-03-01T08:16:33;62.27;;;21.53;;
8556;SDS011;4316;53.840;10.762;2023-03-01T08:19:06;101.40;;;20.20;;
8556;SDS011;4316;53.840;10.762;2023-03-01T08:21:34;38.53;;;20.33;;
8556;SDS011;4316;53.840;10.762;2023-03-01T08:24:04;74.23;;;22.13;;
8556;SDS011;4316;53.840;10.762;2023-03-01T08:26:31;54.43;;;22.03;;
8556;SDS011;4316;53.840;10.762;2023-03-01T08:28:57;57.20;;;22.53;;
8556;SDS011;4316;53.840;10.762;2023-03-01T08:31:26;57.60;;;21.80;;
8556;SDS011;4316;53.840;10.762;2023-03-01T08:34:00;48.00;;;23.37;;
8556;SDS011;4316;53.840;10.762;2023-03-01T08:36:32;67.23;;;24.10;;
8556;SDS011;4316;53.840;10.762;2023-03-01T08:38:59;33.97;;;22.30;;
8556;SDS011;4316;53.840;10.762;2023-03-01T08:41:25;49.53;;;22.50;;
8556;SDS011;4316;53.840;10.762;2023-03-01T08:43:53;41.43;;;21.60;;
8556;SDS011;4316;53.840;10.762;2023-03-01T08:46:24;45.07;;;22.83;;
8556;SDS011;4316;53.840;10.762;2023-03-01T08:48:51;60.73;;;23.03;;
8556;SDS011;4316;53.840;10.762;2023-03-01T08:51:17;38.33;;;21.73;;
8556;SDS011;4316;53.840;10.762;2023-03-01T08:53:44;42.37;;;22.73;;
8556;SDS011;4316;53.840;10.762;2023-03-01T08:56:11;35.87;;;22.07;;
8556;SDS011;4316;53.840;10.762;2023-03-01T08:58:37;40.00;;;22.27;;
8556;SDS011;4316;53.840;10.762;2023-03-01T09:01:09;61.43;;;21.47;;
8556;SDS011;4316;53.840;10.762;2023-03-01T09:03:36;45.47;;;21.93;;
8556;SDS011;4316;53.840;10.762;2023-03-01T09:06:02;34.17;;;22.90;;
8556;SDS011;4316;53.840;10.762;2023-03-01T09:08:29;53.70;;;23.43;;
8556;SDS011;4316;53.840;10.762;2023-03-01T09:10:55;41.03;;;22.07;;
8556;SDS011;4316;53.840;10.762;2023-03-01T09:13:21;37.60;;;23.97;;
8556;SDS011;4316;53.840;10.762;2023-03-01T09:15:52;55.53;;;22.27;;
8556;SDS011;4316;53.840;10.762;2023-03-01T09:18:18;44.27;;;21.93;;
8556;SDS011;4316;53.840;10.762;2023-03-01T09:20:44;32.03;;;21.27;;
8556;SDS011;4316;53.840;10.762;2023-03-01T09:23:09;39.30;;;21.37;;
8556;SDS011;4316;53.840;10.762;2023-03-01T09:25:35;38.57;;;20.83;;
8556;SDS011;4316;53.840;10.762;2023-03-01T09:28:01;35.87;;;21.43;;
8556;SDS011;4316;53.840;10.762;2023-03-01T09:30:26;32.17;;;21.37;;
8556;SDS011;4316;53.840;10.762;2023-03-01T09:32:52;33.47;;;19.77;;
8556;SDS011;4316;53.840;10.762;2023-03-01T09:35:18;34.20;;;19.27;;
8556;SDS011;4316;53.840;10.762;2023-03-01T09:37:45;32.30;;;19.50;;
8556;SDS011;4316;53.840;10.762;2023-03-01T09:40:15;29.67;;;17.43;;
8556;SDS011;4316;53.840;10.762;2023-03-01T09:42:54;28.80;;;17.40;;
8556;SDS011;4316;53.840;10.762;2023-03-01T09:45:38;27.77;;;14.03;;
8556;SDS011;4316;53.840;10.762;2023-03-01T09:48:11;18.00;;;12.83;;
8556;SDS011;4316;53.840;10.762;2023-03-01T09:50:47;25.97;;;12.70;;
8556;SDS011;4316;53.840;10.762;2023-03-01T09:53:15;16.57;;;12.00;;
8556;SDS011;4316;53.840;10.762;2023-03-01T09:55:44;18.30;;;11.53;;
8556;SDS011;4316;53.840;10.762;2023-03-01T09:58:29;13.87;;;10.97;;
8556;SDS011;4316;53.840;10.762;2023-03-01T10:01:21;14.73;;;10.17;;
8556;SDS011;4316;53.840;10.762;2023-03-01T10:09:36;14.67;;;10.33;;
8556;SDS011;4316;53.840;10.762;2023-03-01T10:12:25;13.20;;;9.90;;
8556;SDS011;4316;53.840;10.762;2023-03-01T10:15:05;13.17;;;9.70;;
8556;SDS011;4316;53.840;10.762;2023-03-01T10:22:49;15.07;;;8.63;;
8556;SDS011;4316;53.840;10.762;2023-03-01T10:30:54;11.20;;;7.40;;
8556;SDS011;4316;53.840;10.762;2023-03-01T10:33:24;7.23;;;6.53;;
8556;SDS011;4316;53.840;10.762;2023-03-01T10:35:58;9.57;;;7.23;;
8556;SDS011;4316;53.840;10.762;2023-03-01T10:38:24;10.10;;;6.47;;
8556;SDS011;4316;53.840;10.762;2023-03-01T10:43:15;7.93;;;7.10;;
8556;SDS011;4316;53.840;10.762;2023-03-01T10:45:41;7.20;;;6.40;;
8556;SDS011;4316;53.840;10.762;2023-03-01T10:53:24;7.07;;;5.73;;
8556;SDS011;4316;53.840;10.762;2023-03-01T10:56:13;7.00;;;6.30;;
8556;SDS011;4316;53.840;10.762;2023-03-01T11:06:36;8.23;;;6.37;;
8556;SDS011;4316;53.840;10.762;2023-03-01T11:09:25;7.30;;;6.00;;
8556;SDS011;4316;53.840;10.762;2023-03-01T11:11:56;6.83;;;5.53;;
8556;SDS011;4316;53.840;10.762;2023-03-01T11:14:26;8.77;;;5.17;;
8556;SDS011;4316;53.840;10.762;2023-03-01T11:16:59;9.50;;;4.80;;
8556;SDS011;4316;53.840;10.762;2023-03-01T11:19:48;4.93;;;4.23;;
8556;SDS011;4316;53.840;10.762;2023-03-01T11:22:42;7.80;;;4.53;;
8556;SDS011;4316;53.840;10.762;2023-03-01T11:25:16;9.10;;;5.60;;
8556;SDS011;4316;53.840;10.762;2023-03-01T11:27:45;7.00;;;5.33;;
8556;SDS011;4316;53.840;10.762;2023-03-01T11:30:23;14.20;;;5.70;;
8556;SDS011;4316;53.840;10.762;2023-03-01T11:36:13;9.77;;;5.73;;
8556;SDS011;4316;53.840;10.762;2023-03-01T11:38:40;5.97;;;5.47;;
8556;SDS011;4316;53.840;10.762;2023-03-01T11:41:10;7.40;;;5.00;;
8556;SDS011;4316;53.840;10.762;2023-03-01T11:43:56;9.27;;;4.87;;
8556;SDS011;4316;53.840;10.762;2023-03-01T11:51:41;17.40;;;5.17;;
8556;SDS011;4316;53.840;10.762;2023-03-01T11:56:50;8.80;;;5.57;;
8556;SDS011;4316;53.840;10.762;2023-03-01T11:59:45;8.77;;;5.50;;
8556;SDS011;4316;53.840;10.762;2023-03-01T12:07:29;7.23;;;4.73;;
8556;SDS011;4316;53.840;10.762;2023-03-01T12:10:23;14.37;;;4.80;;
8556;SDS011;4316;53.840;10.762;2023-03-01T12:13:03;5.17;;;4.23;;
8556;SDS011;4316;53.840;10.762;2023-03-01T12:21:00;4.67;;;3.80;;
8556;SDS011;4316;53.840;10.762;2023-03-01T12:24:01;7.20;;;3.67;;
8556;SDS011;4316;53.840;10.762;2023-03-01T12:29:57;4.33;;;3.93;;
8556;SDS011;4316;53.840;10.762;2023-03-01T12:35:05;4.97;;;3.90;;
8556;SDS011;4316;53.840;10.762;2023-03-01T12:49:04;4.67;;;3.80;;
8556;SDS011;4316;53.840;10.762;2023-03-01T12:51:38;6.63;;;4.53;;
8556;SDS011;4316;53.840;10.762;2023-03-01T12:54:07;5.13;;;4.43;;
8556;SDS011;4316;53.840;10.762;2023-03-01T12:57:20;4.80;;;4.33;;
8556;SDS011;4316;53.840;10.762;2023-03-01T13:03:00;5.07;;;4.37;;
8556;SDS011;4316;53.840;10.762;2023-03-01T13:09:22;5.77;;;4.53;;
8556;SDS011;4316;53.840;10.762;2023-03-01T13:17:48;8.10;;;5.00;;
8556;SDS011;4316;53.840;10.762;2023-03-01T13:28:40;5.73;;;4.90;;
8556;SDS011;4316;53.840;10.762;2023-03-01T13:33:55;7.60;;;4.57;;
8556;SDS011;4316;53.840;10.762;2023-03-01T13:39:00;7.30;;;5.47;;
8556;SDS011;4316;53.840;10.762;2023-03-01T13:44:26;6.80;;;4.50;;
8556;SDS011;4316;53.840;10.762;2023-03-01T13:52:13;5.63;;;4.63;;
8556;SDS011;4316;53.840;10.762;2023-03-01T13:57:38;5.80;;;4.77;;
8556;SDS011;4316;53.840;10.762;2023-03-01T14:00:07;7.60;;;5.27;;
8556;SDS011;4316;53.840;10.762;2023-03-01T14:03:10;10.47;;;5.00;;
8556;SDS011;4316;53.840;10.762;2023-03-01T14:05:37;6.10;;;5.40;;
8556;SDS011;4316;53.840;10.762;2023-03-01T14:08:13;12.67;;;5.17;;
8556;SDS011;4316;53.840;10.762;2023-03-01T14:10:49;5.90;;;5.37;;
8556;SDS011;4316;53.840;10.762;2023-03-01T14:24:47;7.43;;;5.50;;
8556;SDS011;4316;53.840;10.762;2023-03-01T14:27:17;5.73;;;5.23;;
8556;SDS011;4316;53.840;10.762;2023-03-01T14:29:43;6.43;;;5.83;;
8556;SDS011;4316;53.840;10.762;2023-03-01T14:34:46;6.40;;;5.63;;
8556;SDS011;4316;53.840;10.762;2023-03-01T14:37:35;8.00;;;6.23;;
8556;SDS011;4316;53.840;10.762;2023-03-01T14:40:01;9.33;;;6.83;;
8556;SDS011;4316;53.840;10.762;2023-03-01T14:42:29;7.87;;;6.77;;
8556;SDS011;4316;53.840;10.762;2023-03-01T14:44:59;7.00;;;6.23;;
8556;SDS011;4316;53.840;10.762;2023-03-01T14:50:46;8.03;;;6.73;;
8556;SDS011;4316;53.840;10.762;2023-03-01T14:52:50;8.93;;;6.93;;
8556;SDS011;4316;53.840;10.762;2023-03-01T14:55:20;7.57;;;6.67;;
8556;SDS011;4316;53.840;10.762;2023-03-01T14:57:52;9.10;;;7.10;;
8556;SDS011;4316;53.840;10.762;2023-03-01T15:00:22;8.50;;;6.97;;
8556;SDS011;4316;53.840;10.762;2023-03-01T15:02:53;9.40;;;7.47;;
8556;SDS011;4316;53.840;10.762;2023-03-01T15:05:30;9.33;;;6.97;;
8556;SDS011;4316;53.840;10.762;2023-03-01T15:07:57;12.63;;;7.83;;
8556;SDS011;4316;53.840;10.762;2023-03-01T15:10:35;8.43;;;7.57;;
8556;SDS011;4316;53.840;10.762;2023-03-01T15:13:19;9.77;;;7.47;;
8556;SDS011;4316;53.840;10.762;2023-03-01T15:15:48;9.43;;;8.17;;
8556;SDS011;4316;53.840;10.762;2023-03-01T15:18:17;10.97;;;8.03;;
8556;SDS011;4316;53.840;10.762;2023-03-01T15:20:44;11.80;;;8.00;;
8556;SDS011;4316;53.840;10.762;2023-03-01T15:23:18;9.27;;;8.10;;
8556;SDS011;4316;53.840;10.762;2023-03-01T15:25:53;9.93;;;8.93;;
8556;SDS011;4316;53.840;10.762;2023-03-01T15:28:24;10.63;;;8.73;;
8556;SDS011;4316;53.840;10.762;2023-03-01T15:30:53;8.83;;;7.87;;
8556;SDS011;4316;53.840;10.762;2023-03-01T15:35:55;10.93;;;9.23;;
8556;SDS011;4316;53.840;10.762;2023-03-01T15:38:30;9.67;;;8.67;;
8556;SDS011;4316;53.840;10.762;2023-03-01T15:41:25;9.73;;;8.73;;
8556;SDS011;4316;53.840;10.762;2023-03-01T15:43:56;9.60;;;8.43;;
8556;SDS011;4316;53.840;10.762;2023-03-01T15:46:27;10.33;;;8.37;;
8556;SDS011;4316;53.840;10.762;2023-03-01T15:48:58;8.57;;;7.70;;
8556;SDS011;4316;53.840;10.762;2023-03-01T15:53:55;9.37;;;7.97;;
8556;SDS011;4316;53.840;10.762;2023-03-01T15:56:23;8.77;;;7.80;;
8556;SDS011;4316;53.840;10.762;2023-03-01T15:58:49;10.33;;;8.37;;
8556;SDS011;4316;53.840;10.762;2023-03-01T16:01:15;11.00;;;7.80;;
8556;SDS011;4316;53.840;10.762;2023-03-01T16:03:42;8.63;;;7.73;;
8556;SDS011;4316;53.840;10.762;2023-03-01T16:06:11;9.27;;;7.60;;
8556;SDS011;4316;53.840;10.762;2023-03-01T16:08:38;10.30;;;7.90;;
8556;SDS011;4316;53.840;10.762;2023-03-01T16:11:14;7.67;;;6.97;;
8556;SDS011;4316;53.840;10.762;2023-03-01T16:13:41;14.73;;;7.60;;
8556;SDS011;4316;53.840;10.762;2023-03-01T16:16:08;7.73;;;6.93;;
8556;SDS011;4316;53.840;10.762;2023-03-01T16:18:37;8.40;;;7.53;;
8556;SDS011;4316;53.840;10.762;2023-03-01T16:21:04;8.43;;;7.53;;
8556;SDS011;4316;53.840;10.762;2023-03-01T16:23:30;8.60;;;7.80;;
8556;SDS011;4316;53.840;10.762;2023-03-01T16:25:58;9.73;;;7.70;;
8556;SDS011;4316;53.840;10.762;2023-03-01T16:28:25;9.67;;;8.10;;
8556;SDS011;4316;53.840;10.762;2023-03-01T16:30:51;9.50;;;8.47;;
8556;SDS011;4316;53.840;10.762;2023-03-01T16:33:17;9.90;;;8.13;;
8556;SDS011;4316;53.840;10.762;2023-03-01T16:35:43;9.73;;;8.60;;
8556;SDS011;4316;53.840;10.762;2023-03-01T16:38:09;10.77;;;8.70;;
8556;SDS011;4316;53.840;10.762;2023-03-01T16:40:35;13.13;;;11.17;;
8556;SDS011;4316;53.840;10.762;2023-03-01T16:43:01;13.73;;;10.83;;
8556;SDS011;4316;53.840;10.762;2023-03-01T16:45:27;12.43;;;10.13;;
8556;SDS011;4316;53.840;10.762;2023-03-01T16:47:57;10.77;;;9.37;;
8556;SDS011;4316;53.840;10.762;2023-03-01T16:50:23;10.90;;;8.77;;
8556;SDS011;4316;53.840;10.762;2023-03-01T16:52:49;12.27;;;9.43;;
8556;SDS011;4316;53.840;10.762;2023-03-01T16:55:15;11.50;;;9.77;;
8556;SDS011;4316;53.840;10.762;2023-03-01T16:57:41;10.63;;;9.03;;
8556;SDS011;4316;53.840;10.762;2023-03-01T17:00:08;10.50;;;9.37;;
8556;SDS011;4316;53.840;10.762;2023-03-01T17:02:36;11.47;;;9.50;;
8556;SDS011;4316;53.840;10.762;2023-03-01T17:05:02;11.20;;;9.53;;
8556;SDS011;4316;53.840;10.762;2023-03-01T17:07:29;10.47;;;9.00;;
8556;SDS011;4316;53.840;10.762;2023-03-01T17:09:58;12.03;;;9.77;;
8556;SDS011;4316;53.840;10.762;2023-03-01T17:12:25;10.10;;;9.00;;
8556;SDS011;4316;53.840;10.762;2023-03-01T17:14:51;10.07;;;8.80;;
8556;SDS011;4316;53.840;10.762;2023-03-01T17:17:19;14.83;;;10.50;;
8556;SDS011;4316;53.840;10.762;2023-03-01T17:19:45;12.43;;;8.93;;
8556;SDS011;4316;53.840;10.762;2023-03-01T17:22:11;12.03;;;9.20;;
8556;SDS011;4316;53.840;10.762;2023-03-01T17:24:38;11.10;;;8.27;;
8556;SDS011;4316;53.840;10.762;2023-03-01T17:27:05;10.23;;;9.03;;
8556;SDS011;4316;53.840;10.762;2023-03-01T17:29:32;11.37;;;9.40;;
8556;SDS011;4316;53.840;10.762;2023-03-01T17:31:58;11.27;;;9.60;;